Time;durP1;ratioP1;P1;durP2;ratioP2;P2;SDS_P1;SDS_P2;PMS_P1;PMS_P2;Temp;Humidity;BMP_temperature;BMP_pressure;BME280_temperature;BME280_humidity;BME280_pressure;Samples;Min_cycle;Max_cycle;Signal;HPM_P1;HPM_P2
2021/08/16 00:00:00;;;;;;;15.23;9.87;;;19.50;99.90;;;;;;4439491;32;20187;-78
2021/08/16 00:02:27;;;;;;;14.67;9.70;;;19.50;99.90;;;;;;4439389;32;20354;-78
2021/08/16 00:04:54;;;;;;;16.03;10.07;;;19.40;99.90;;;;;;4440847;32;20134;-77
2021/08/16 00:07:21;;;;;;;16.43;10.00;;;19.50;99.90;;;;;;4439202;32;20445;-78
2021/08/16 00:09:48;;;;;;;16.67;10.43;;;19.40;99.90;;;;;;4440132;32;20186;-78
2021/08/16 00:12:15;;;;;;;14.83;10.17;;;19.40;99.90;;;;;;4438166;32;20153;-78
2021/08/16 00:14:42;;;;;;;16.10;10.03;;;19.30;99.90;;;;;;4440816;32;20261;-77
2021/08/16 00:17:09;;;;;;;14.93;10.23;;;19.30;99.90;;;;;;4440035;32;20131;-77
2021/08/16 00:19:35;;;;;;;15.67;9.83;;;19.30;99.90;;;;;;4440217;32;20149;-77
2021/08/16 00:22:02;;;;;;;17.93;10.13;;;19.30;99.90;;;;;;4439774;32;20170;-78
2021/08/16 00:24:30;;;;;;;16.03;10.30;;;19.20;99.90;;;;;;4438281;32;20138;-78
2021/08/16 00:26:58;;;;;;;15.93;9.87;;;19.20;99.90;;;;;;4440691;32;20127;-77
2021/08/16 00:29:25;;;;;;;16.50;10.53;;;19.10;99.90;;;;;;4439126;32;20207;-77
2021/08/16 00:31:52;;;;;;;16.30;10.07;;;19.20;99.90;;;;;;4440141;32;20197;-77
2021/08/16 00:34:18;;;;;;;15.90;10.13;;;19.10;99.90;;;;;;4439973;32;20226;-78
2021/08/16 00:36:45;;;;;;;16.73;10.00;;;19.10;99.90;;;;;;4440308;32;20564;-78
2021/08/16 00:39:12;;;;;;;16.83;9.70;;;19.00;99.90;;;;;;4439110;32;20150;-78
2021/08/16 00:41:39;;;;;;;14.13;9.93;;;19.00;99.90;;;;;;4438739;32;20513;-78
2021/08/16 00:44:09;;;;;;;14.87;9.90;;;19.00;99.90;;;;;;4438874;32;20123;-77
2021/08/16 00:46:37;;;;;;;18.17;9.93;;;18.90;99.90;;;;;;4439935;32;20512;-78
2021/08/16 00:49:04;;;;;;;15.13;10.20;;;18.90;99.90;;;;;;4439200;32;20206;-78
2021/08/16 00:51:33;;;;;;;16.87;10.43;;;18.80;99.90;;;;;;4439426;32;20142;-78
2021/08/16 00:54:02;;;;;;;16.60;10.00;;;18.80;99.90;;;;;;4440667;32;20127;-77
2021/08/16 00:56:29;;;;;;;15.33;9.83;;;18.80;99.90;;;;;;4438803;32;20179;-78
2021/08/16 00:59:02;;;;;;;16.67;10.03;;;18.80;99.90;;;;;;4440353;32;20199;-78
2021/08/16 01:01:29;;;;;;;15.60;9.90;;;18.80;99.90;;;;;;4439818;32;20422;-78
2021/08/16 01:04:00;;;;;;;16.97;10.37;;;18.70;99.90;;;;;;4438713;32;20126;-77
2021/08/16 01:06:27;;;;;;;17.23;9.93;;;18.70;99.90;;;;;;4440035;32;20197;-78
2021/08/16 01:08:54;;;;;;;16.10;10.27;;;18.70;99.90;;;;;;4439504;32;20207;-78
2021/08/16 01:11:21;;;;;;;15.10;10.13;;;18.70;99.90;;;;;;4439864;32;20191;-78
2021/08/16 01:13:48;;;;;;;16.37;10.80;;;18.60;99.90;;;;;;4439760;32;20184;-77
2021/08/16 01:16:16;;;;;;;16.97;10.73;;;18.60;99.90;;;;;;4438487;32;20135;-77
2021/08/16 01:18:43;;;;;;;16.10;10.60;;;18.50;99.90;;;;;;4439959;32;20123;-77
2021/08/16 01:21:13;;;;;;;20.17;11.30;;;18.50;99.90;;;;;;4437910;32;20127;-78
2021/08/16 01:23:40;;;;;;;15.67;10.73;;;18.50;99.90;;;;;;4438284;32;20152;-78
2021/08/16 01:26:08;;;;;;;17.83;10.67;;;18.50;99.90;;;;;;4438770;32;20352;-78
2021/08/16 01:28:35;;;;;;;18.03;11.10;;;18.50;99.90;;;;;;4439666;32;20282;-78
2021/08/16 01:31:05;;;;;;;16.80;11.27;;;18.50;99.90;;;;;;4440060;32;20254;-78
2021/08/16 01:33:34;;;;;;;15.47;10.47;;;18.50;99.90;;;;;;4438557;32;20214;-78
2021/08/16 01:36:01;;;;;;;15.30;10.43;;;18.40;99.90;;;;;;4439556;32;20199;-78
2021/08/16 01:38:31;;;;;;;17.93;10.63;;;18.50;99.90;;;;;;4440610;32;20191;-78
2021/08/16 01:40:58;;;;;;;20.80;10.73;;;18.40;99.90;;;;;;4441108;32;20135;-78
2021/08/16 01:43:25;;;;;;;17.27;10.23;;;18.50;99.90;;;;;;4441519;32;20179;-78
2021/08/16 01:45:52;;;;;;;17.20;10.47;;;18.40;99.90;;;;;;4443232;32;20207;-78
2021/08/16 01:48:19;;;;;;;15.63;10.10;;;18.40;99.90;;;;;;4441486;32;20146;-77
2021/08/16 01:50:46;;;;;;;15.73;10.03;;;18.40;99.90;;;;;;4440624;32;20439;-77
2021/08/16 01:53:13;;;;;;;16.00;10.23;;;18.40;99.90;;;;;;4442940;32;20523;-77
2021/08/16 01:55:40;;;;;;;14.53;9.57;;;18.40;99.90;;;;;;4443026;32;20521;-78
2021/08/16 01:58:09;;;;;;;14.67;9.37;;;18.40;99.90;;;;;;4441457;32;20319;-78
2021/08/16 02:00:36;;;;;;;14.40;9.50;;;18.40;99.90;;;;;;4440931;32;20165;-78
2021/08/16 02:03:03;;;;;;;14.10;8.90;;;18.40;99.90;;;;;;4441222;32;20169;-77
2021/08/16 02:05:31;;;;;;;13.83;8.27;;;18.40;99.90;;;;;;4442089;32;20126;-76
2021/08/16 02:07:59;;;;;;;13.60;8.33;;;18.40;99.90;;;;;;4442825;32;20401;-77
2021/08/16 02:10:25;;;;;;;13.90;8.30;;;18.40;99.90;;;;;;4440901;32;20453;-77
2021/08/16 02:12:52;;;;;;;14.33;7.93;;;18.40;99.90;;;;;;4442585;32;20445;-77
2021/08/16 02:15:19;;;;;;;13.30;8.03;;;18.50;99.90;;;;;;4440874;32;20131;-77
2021/08/16 02:17:46;;;;;;;13.03;7.93;;;18.50;99.90;;;;;;4440480;32;20155;-77
2021/08/16 02:20:13;;;;;;;12.93;7.57;;;18.50;99.90;;;;;;4440856;32;20190;-76
2021/08/16 02:22:40;;;;;;;14.53;8.67;;;18.60;99.90;;;;;;4442428;32;20127;-76
2021/08/16 02:25:07;;;;;;;13.63;8.23;;;18.50;99.90;;;;;;4441802;32;20131;-76
2021/08/16 02:27:34;;;;;;;14.50;8.73;;;18.50;99.90;;;;;;4442272;32;20207;-76
2021/08/16 02:30:01;;;;;;;13.90;8.37;;;18.50;99.90;;;;;;4441365;32;20400;-76
2021/08/16 02:32:27;;;;;;;14.23;9.17;;;18.40;99.90;;;;;;4440882;32;20419;-76
2021/08/16 02:34:54;;;;;;;14.37;9.87;;;18.40;99.90;;;;;;4441224;32;20134;-77
2021/08/16 02:37:21;;;;;;;14.33;9.00;;;18.40;99.90;;;;;;4442389;32;20395;-76
2021/08/16 02:39:48;;;;;;;18.73;10.80;;;18.30;99.90;;;;;;4441434;32;20126;-77
2021/08/16 02:42:14;;;;;;;15.10;10.03;;;18.30;99.90;;;;;;4442188;32;20135;-77
2021/08/16 02:44:41;;;;;;;15.50;9.50;;;18.20;99.90;;;;;;4440440;32;20186;-77
2021/08/16 02:47:08;;;;;;;14.87;9.57;;;18.20;99.90;;;;;;4442512;32;20138;-76
2021/08/16 02:49:35;;;;;;;15.37;10.23;;;18.20;99.90;;;;;;4441701;32;20541;-77
2021/08/16 02:52:03;;;;;;;16.97;10.33;;;18.20;99.90;;;;;;4439330;32;20515;-76
2021/08/16 02:54:30;;;;;;;17.30;9.73;;;18.20;99.90;;;;;;4442201;32;20184;-75
2021/08/16 02:56:57;;;;;;;17.30;10.00;;;18.10;99.90;;;;;;4441838;32;20126;-76
2021/08/16 02:59:23;;;;;;;17.43;10.10;;;18.10;99.90;;;;;;4441944;32;20155;-77
2021/08/16 03:01:50;;;;;;;18.80;9.43;;;18.10;99.90;;;;;;4440475;32;20212;-76
2021/08/16 03:04:17;;;;;;;17.30;9.33;;;18.10;99.90;;;;;;4441664;32;20135;-77
2021/08/16 03:06:44;;;;;;;13.97;9.00;;;18.00;99.90;;;;;;4440144;32;20127;-77
2021/08/16 03:09:11;;;;;;;17.23;10.00;;;18.00;99.90;;;;;;4440162;32;20127;-76
2021/08/16 03:11:37;;;;;;;14.77;9.20;;;18.00;99.90;;;;;;4441327;32;20142;-76
2021/08/16 03:14:04;;;;;;;15.73;9.73;;;18.00;99.90;;;;;;4441941;32;20123;-77
2021/08/16 03:16:31;;;;;;;15.27;9.77;;;18.00;99.90;;;;;;4440474;32;20166;-76
2021/08/16 03:18:58;;;;;;;14.00;9.40;;;17.90;99.90;;;;;;4441750;32;20130;-77
2021/08/16 03:21:25;;;;;;;15.43;8.90;;;17.90;99.90;;;;;;4440275;32;20126;-77
2021/08/16 03:23:51;;;;;;;13.47;9.20;;;17.90;99.90;;;;;;4439335;32;20176;-77
2021/08/16 03:26:18;;;;;;;15.50;9.07;;;17.90;99.90;;;;;;4441663;32;20206;-76
2021/08/16 03:28:45;;;;;;;15.50;9.20;;;17.90;99.90;;;;;;4438981;32;20564;-77
2021/08/16 03:31:12;;;;;;;17.03;9.20;;;17.90;99.90;;;;;;4441343;32;20191;-77
2021/08/16 03:33:38;;;;;;;13.50;9.10;;;18.00;99.90;;;;;;4441096;32;20130;-77
2021/08/16 03:36:05;;;;;;;13.57;9.30;;;18.00;99.90;;;;;;4441340;32;20130;-77
2021/08/16 03:38:32;;;;;;;14.27;8.63;;;18.00;99.90;;;;;;4441191;32;20485;-77
2021/08/16 03:40:59;;;;;;;14.97;8.87;;;18.00;99.90;;;;;;4441615;32;20122;-77
2021/08/16 03:43:26;;;;;;;17.23;8.83;;;18.00;99.90;;;;;;4441434;32;20131;-77
2021/08/16 03:45:53;;;;;;;13.90;8.27;;;18.00;99.90;;;;;;4440063;32;20176;-76
2021/08/16 03:48:21;;;;;;;12.87;8.50;;;18.10;99.90;;;;;;4440997;32;20151;-77
2021/08/16 03:50:48;;;;;;;12.13;8.40;;;18.10;99.90;;;;;;4441142;32;20126;-78
2021/08/16 03:53:15;;;;;;;12.07;7.90;;;18.10;99.90;;;;;;4439545;32;20134;-77
2021/08/16 03:55:42;;;;;;;11.20;8.00;;;18.10;99.90;;;;;;4441164;32;20127;-77
2021/08/16 03:58:09;;;;;;;13.17;8.47;;;18.10;99.90;;;;;;4440287;32;20436;-77
2021/08/16 04:00:39;;;;;;;12.63;8.40;;;18.10;99.90;;;;;;4440586;32;20142;-75
2021/08/16 04:03:06;;;;;;;14.70;8.37;;;18.20;99.90;;;;;;4438996;32;20135;-76
2021/08/16 04:05:33;;;;;;;11.37;7.97;;;18.20;99.90;;;;;;4440594;32;20474;-76
2021/08/16 04:08:00;;;;;;;13.53;8.30;;;18.20;99.90;;;;;;4441073;32;20143;-77
2021/08/16 04:10:27;;;;;;;12.87;8.70;;;18.20;99.90;;;;;;4439197;32;20175;-77
2021/08/16 04:12:54;;;;;;;11.10;8.10;;;18.20;99.90;;;;;;4440771;32;20177;-77
2021/08/16 04:15:22;;;;;;;11.67;8.27;;;18.30;99.90;;;;;;4439632;32;20172;-77
2021/08/16 04:17:50;;;;;;;14.63;8.30;;;18.30;99.90;;;;;;4441036;32;20131;-77
2021/08/16 04:20:18;;;;;;;13.83;8.60;;;18.30;99.90;;;;;;4440250;32;20169;-77
2021/08/16 04:22:46;;;;;;;14.27;9.00;;;18.30;99.90;;;;;;4439801;32;20448;-76
2021/08/16 04:25:15;;;;;;;15.20;8.10;;;18.30;99.90;;;;;;4438640;32;20227;-77
2021/08/16 04:27:43;;;;;;;13.10;8.47;;;18.30;99.90;;;;;;4439074;32;20417;-77
2021/08/16 04:30:11;;;;;;;13.03;8.20;;;18.40;99.90;;;;;;4439078;32;20162;-76
2021/08/16 04:32:38;;;;;;;15.37;8.70;;;18.40;99.90;;;;;;4440421;32;20147;-77
2021/08/16 04:35:06;;;;;;;14.80;8.87;;;18.40;99.90;;;;;;4440632;32;20223;-76
2021/08/16 04:37:40;;;;;;;13.17;8.27;;;18.50;99.90;;;;;;4440592;32;20184;-77
2021/08/16 04:40:08;;;;;;;13.10;8.10;;;18.50;99.90;;;;;;4440795;32;20126;-77
2021/08/16 04:42:35;;;;;;;12.37;7.80;;;18.50;99.90;;;;;;4440694;32;20200;-77
2021/08/16 04:45:03;;;;;;;12.40;7.93;;;18.50;99.90;;;;;;4439134;32;20438;-77
2021/08/16 04:47:30;;;;;;;13.00;8.03;;;18.60;99.90;;;;;;4440665;32;20135;-77
2021/08/16 04:49:57;;;;;;;13.20;8.33;;;18.60;99.90;;;;;;4439056;32;20173;-77
2021/08/16 04:52:24;;;;;;;10.67;7.73;;;18.60;99.90;;;;;;4440384;32;20166;-77
2021/08/16 04:54:52;;;;;;;12.23;8.20;;;18.70;99.90;;;;;;4438000;32;20508;-77
2021/08/16 04:57:34;;;;;;;16.63;8.83;;;18.70;99.90;;;;;;4439133;32;20142;-76
2021/08/16 05:00:05;;;;;;;14.83;8.67;;;18.80;99.90;;;;;;4438697;32;20164;-76
2021/08/16 05:02:32;;;;;;;12.47;8.37;;;18.80;99.90;;;;;;4440328;32;20161;-76
2021/08/16 05:05:07;;;;;;;13.93;8.93;;;18.80;99.90;;;;;;4440038;32;20169;-77
2021/08/16 05:07:33;;;;;;;15.40;9.13;;;18.90;99.90;;;;;;4437572;32;20493;-77
2021/08/16 05:10:00;;;;;;;15.43;9.07;;;18.90;99.90;;;;;;4438676;32;20146;-80
2021/08/16 05:12:27;;;;;;;13.17;9.13;;;18.90;99.90;;;;;;4438723;32;20211;-77
2021/08/16 05:14:54;;;;;;;14.17;10.13;;;19.00;99.90;;;;;;4438346;32;20210;-75
2021/08/16 05:17:21;;;;;;;15.90;10.20;;;19.00;99.90;;;;;;4439577;32;20180;-78
2021/08/16 05:19:48;;;;;;;14.70;9.97;;;19.00;99.90;;;;;;4440134;32;20130;-78
2021/08/16 05:22:15;;;;;;;14.40;10.40;;;19.00;99.90;;;;;;4440268;32;20445;-79
2021/08/16 05:24:42;;;;;;;14.03;10.60;;;19.00;99.90;;;;;;4440310;32;20190;-79
2021/08/16 05:27:09;;;;;;;14.40;10.27;;;19.00;99.90;;;;;;4439926;32;20127;-78
2021/08/16 05:29:35;;;;;;;15.70;10.87;;;19.00;99.90;;;;;;4438894;32;20200;-77
2021/08/16 05:32:02;;;;;;;16.80;11.43;;;19.10;99.90;;;;;;4438205;32;20127;-79
2021/08/16 05:34:29;;;;;;;14.67;11.10;;;19.10;99.90;;;;;;4439496;32;20139;-79
2021/08/16 05:36:57;;;;;;;16.00;11.07;;;19.10;99.90;;;;;;4439697;32;20183;-77
2021/08/16 05:39:23;;;;;;;19.23;11.70;;;19.20;99.90;;;;;;4440298;32;20571;-77
2021/08/16 05:41:50;;;;;;;16.63;10.97;;;19.20;99.90;;;;;;4440188;32;20196;-77
2021/08/16 05:44:17;;;;;;;15.60;11.13;;;19.30;99.90;;;;;;4439631;32;20428;-79
2021/08/16 05:46:44;;;;;;;15.50;10.63;;;19.40;99.90;;;;;;4438118;32;20158;-75
2021/08/16 05:49:11;;;;;;;15.07;11.03;;;19.40;99.90;;;;;;4438748;32;20135;-76
2021/08/16 05:51:38;;;;;;;17.17;11.27;;;19.50;99.90;;;;;;4439931;32;20146;-77
2021/08/16 05:54:05;;;;;;;16.37;11.10;;;19.60;99.90;;;;;;4438896;32;20142;-79
2021/08/16 05:56:32;;;;;;;17.80;11.00;;;19.60;99.90;;;;;;4439487;32;20123;-79
2021/08/16 05:58:58;;;;;;;20.40;11.43;;;19.70;99.90;;;;;;4437690;32;20202;-76
2021/08/16 06:01:25;;;;;;;14.80;10.60;;;19.70;99.90;;;;;;4439045;32;20184;-75
2021/08/16 06:03:52;;;;;;;20.00;11.03;;;19.80;99.90;;;;;;4438544;32;20142;-75
2021/08/16 06:06:19;;;;;;;19.00;11.57;;;19.80;99.90;;;;;;4438404;32;20218;-76
2021/08/16 06:08:46;;;;;;;16.67;11.77;;;19.80;99.90;;;;;;4439250;32;20165;-76
2021/08/16 06:11:13;;;;;;;14.30;10.97;;;19.80;99.90;;;;;;4437212;32;20171;-76
2021/08/16 06:13:39;;;;;;;16.73;11.20;;;19.90;99.90;;;;;;4436930;32;20130;-76
2021/08/16 06:16:06;;;;;;;16.70;11.53;;;19.90;99.90;;;;;;4439068;32;20407;-73
2021/08/16 06:18:33;;;;;;;22.90;11.90;;;20.00;99.90;;;;;;4437785;32;20222;-72
2021/08/16 06:21:00;;;;;;;15.93;11.77;;;20.10;99.90;;;;;;4438312;32;20199;-72
2021/08/16 06:23:27;;;;;;;17.20;12.40;;;20.20;99.90;;;;;;4437640;32;20138;-75
2021/08/16 06:25:54;;;;;;;18.10;12.50;;;20.30;99.90;;;;;;4439715;32;20358;-76
2021/08/16 06:28:21;;;;;;;18.30;12.87;;;20.40;99.90;;;;;;4440666;32;20153;-76
2021/08/16 06:30:47;;;;;;;18.00;12.93;;;20.50;99.90;;;;;;4439976;32;20238;-76
2021/08/16 06:33:14;;;;;;;18.47;12.57;;;20.70;99.90;;;;;;4441836;32;20257;-76
2021/08/16 06:35:41;;;;;;;19.67;13.37;;;20.90;99.90;;;;;;4441148;32;20392;-75
2021/08/16 06:38:20;;;;;;;20.93;12.63;;;21.00;99.90;;;;;;4439762;32;20122;-76
2021/08/16 06:40:52;;;;;;;16.23;12.37;;;21.20;99.90;;;;;;4442236;32;20509;-76
2021/08/16 06:43:19;;;;;;;18.63;12.50;;;21.30;99.90;;;;;;4442319;32;20134;-75
2021/08/16 06:45:46;;;;;;;18.27;12.60;;;21.40;99.90;;;;;;4439935;32;20168;-75
2021/08/16 06:48:13;;;;;;;17.67;11.63;;;21.50;99.90;;;;;;4442231;32;20127;-75
2021/08/16 06:50:44;;;;;;;15.83;11.57;;;21.60;99.90;;;;;;4441201;32;20134;-75
2021/08/16 06:53:13;;;;;;;15.10;11.27;;;21.60;99.90;;;;;;4441588;32;20135;-76
2021/08/16 06:55:45;;;;;;;16.70;11.07;;;21.70;99.90;;;;;;4441963;32;20219;-76
2021/08/16 06:58:12;;;;;;;16.67;11.27;;;21.70;99.90;;;;;;4440183;32;20150;-76
2021/08/16 07:00:46;;;;;;;16.63;11.57;;;21.80;99.90;;;;;;4441578;32;20401;-76
2021/08/16 07:03:13;;;;;;;15.67;10.70;;;21.80;99.90;;;;;;4426653;32;20490;-76
2021/08/16 07:05:42;;;;;;;14.47;11.30;;;21.80;99.90;;;;;;4426488;32;20139;-76
2021/08/16 07:08:10;;;;;;;18.57;11.83;;;21.90;99.90;;;;;;4423951;32;20441;-76
2021/08/16 07:10:37;;;;;;;14.97;11.40;;;21.90;99.90;;;;;;4424786;32;20123;-76
2021/08/16 07:13:04;;;;;;;13.40;11.07;;;22.00;99.90;;;;;;4426267;32;20135;-75
2021/08/16 07:15:31;;;;;;;15.17;11.37;;;22.10;99.90;;;;;;4426275;32;20520;-76
2021/08/16 07:17:58;;;;;;;12.73;10.20;;;22.30;99.90;;;;;;4425791;32;20184;-76
2021/08/16 07:20:26;;;;;;;15.17;11.27;;;22.40;99.90;;;;;;4424126;32;20204;-76
2021/08/16 07:22:53;;;;;;;15.37;10.83;;;22.40;99.90;;;;;;4426154;32;20127;-76
2021/08/16 07:25:20;;;;;;;13.53;9.93;;;22.50;99.90;;;;;;4424613;32;20215;-76
2021/08/16 07:27:47;;;;;;;17.10;10.00;;;22.60;99.90;;;;;;4424984;32;20204;-76
2021/08/16 07:30:14;;;;;;;12.87;9.27;;;22.80;99.90;;;;;;4424747;32;20139;-76
2021/08/16 07:32:41;;;;;;;13.10;9.43;;;22.90;99.90;;;;;;4424063;32;20165;-76
2021/08/16 07:35:08;;;;;;;11.33;8.77;;;22.90;99.90;;;;;;4424980;32;20127;-76
2021/08/16 07:37:35;;;;;;;11.13;8.07;;;23.00;99.90;;;;;;4424291;32;20195;-76
2021/08/16 07:40:03;;;;;;;12.37;8.63;;;23.20;99.90;;;;;;4426355;32;20165;-76
2021/08/16 07:42:30;;;;;;;10.37;8.40;;;23.20;99.90;;;;;;4424321;32;20653;-76
2021/08/16 07:44:57;;;;;;;10.13;8.03;;;23.40;99.90;;;;;;4425621;32;20196;-76
2021/08/16 07:47:24;;;;;;;10.48;7.82;;;23.50;99.90;;;;;;4424977;32;20164;-76
2021/08/16 07:49:50;;;;;;;10.20;7.90;;;23.60;99.90;;;;;;4426199;32;20146;-75
2021/08/16 07:52:17;;;;;;;10.75;7.95;;;23.70;99.90;;;;;;4424598;32;20153;-74
2021/08/16 07:54:44;;;;;;;12.18;8.10;;;23.80;99.90;;;;;;4425921;32;20138;-75
2021/08/16 07:57:11;;;;;;;12.23;7.80;;;24.00;99.90;;;;;;4425886;32;20153;-77
2021/08/16 07:59:38;;;;;;;10.25;7.78;;;24.10;99.90;;;;;;4424689;32;20131;-76
2021/08/16 08:02:05;;;;;;;9.75;7.75;;;24.30;99.90;;;;;;4425519;32;20196;-76
2021/08/16 08:04:33;;;;;;;9.90;7.20;;;24.30;99.90;;;;;;4424258;32;20154;-74
2021/08/16 08:07:01;;;;;;;12.65;7.93;;;24.40;99.90;;;;;;4423906;32;20143;-75
2021/08/16 08:09:28;;;;;;;10.35;7.47;;;24.50;99.90;;;;;;4424001;32;20165;-76
2021/08/16 08:11:55;;;;;;;11.38;7.05;;;24.70;99.90;;;;;;4425057;32;20155;-74
2021/08/16 08:14:22;;;;;;;8.32;6.22;;;25.30;99.90;;;;;;4423756;32;20163;-76
2021/08/16 08:16:48;;;;;;;13.40;6.50;;;26.20;99.90;;;;;;4424138;32;20176;-76
2021/08/16 08:19:15;;;;;;;9.20;6.68;;;26.90;99.90;;;;;;4423992;32;20204;-79
2021/08/16 08:21:42;;;;;;;7.68;6.25;;;27.50;99.90;;;;;;4425453;32;20143;-78
2021/08/16 08:24:09;;;;;;;8.18;6.00;;;28.10;99.90;;;;;;4423757;32;20161;-79
2021/08/16 08:26:36;;;;;;;6.90;5.97;;;28.60;99.90;;;;;;4425245;32;20162;-80
2021/08/16 08:29:02;;;;;;;8.80;6.32;;;29.30;99.90;;;;;;4423401;32;20207;-79
2021/08/16 08:31:29;;;;;;;8.38;5.65;;;29.40;99.90;;;;;;4425659;32;20123;-79
2021/08/16 08:33:56;;;;;;;7.32;5.97;;;29.50;99.90;;;;;;4431363;32;20147;-79
2021/08/16 08:36:23;;;;;;;8.55;6.12;;;29.60;99.90;;;;;;4438908;32;20143;-77
2021/08/16 08:38:50;;;;;;;7.15;5.53;;;30.00;99.90;;;;;;4439116;32;20209;-77
2021/08/16 08:41:17;;;;;;;7.87;5.30;;;29.80;99.90;;;;;;4439725;32;20123;-76
2021/08/16 08:43:45;;;;;;;6.43;5.18;;;29.90;99.90;;;;;;4440360;32;20400;-75
2021/08/16 08:46:13;;;;;;;8.23;5.37;;;30.30;99.90;;;;;;4439802;32;20149;-76
2021/08/16 08:48:40;;;;;;;6.72;5.45;;;30.60;99.90;;;;;;4439049;32;20123;-76
2021/08/16 08:51:07;;;;;;;8.55;5.80;;;30.30;99.90;;;;;;4439677;32;20127;-77
2021/08/16 08:53:34;;;;;;;8.80;5.70;;;30.20;99.90;;;;;;4438944;32;20226;-77
2021/08/16 08:56:03;;;;;;;7.12;5.25;;;30.20;99.90;;;;;;4439634;32;20437;-76
2021/08/16 08:58:30;;;;;;;7.80;5.62;;;29.70;99.90;;;;;;4439734;32;20155;-75
2021/08/16 09:00:58;;;;;;;7.18;5.80;;;29.30;99.90;;;;;;4440349;32;20162;-79
2021/08/16 09:03:24;;;;;;;10.65;5.60;;;29.00;99.90;;;;;;4440608;32;20127;-75
2021/08/16 09:05:56;;;;;;;7.50;5.30;;;28.70;99.90;;;;;;4438423;32;20170;-75
2021/08/16 09:08:29;;;;;;;7.57;5.25;;;28.30;99.90;;;;;;4434320;32;20201;-76
2021/08/16 09:11:13;;;;;;;8.98;5.03;;;28.00;99.90;;;;;;4440334;32;20213;-76
2021/08/16 09:13:56;;;;;;;7.00;5.20;;;27.70;99.90;;;;;;4437994;32;20181;-76
2021/08/16 09:16:28;;;;;;;7.65;4.85;;;27.40;99.90;;;;;;4439832;32;20142;-78
2021/08/16 09:18:56;;;;;;;7.22;5.03;;;27.30;99.90;;;;;;4438737;32;20173;-75
2021/08/16 09:21:39;;;;;;;6.87;4.93;;;27.20;99.90;;;;;;4436207;32;20226;-76
2021/08/16 09:24:06;;;;;;;7.07;4.95;;;27.10;99.90;;;;;;4437152;32;20458;-77
2021/08/16 09:26:39;;;;;;;10.15;4.50;;;27.10;99.90;;;;;;4429970;32;20476;-77
2021/08/16 09:29:22;;;;;;;6.32;4.70;;;27.10;99.90;;;;;;4437037;32;20162;-76
2021/08/16 09:32:03;;;;;;;7.95;5.03;;;27.30;99.90;;;;;;4439269;32;20198;-76
2021/08/16 09:34:34;;;;;;;7.20;5.10;;;27.50;99.90;;;;;;4438112;32;20428;-76
2021/08/16 09:37:13;;;;;;;9.65;4.65;;;27.90;99.90;;;;;;4439735;32;20254;-75
2021/08/16 09:39:42;;;;;;;6.68;4.60;;;28.10;99.90;;;;;;4438602;32;20172;-78
2021/08/16 09:42:10;;;;;;;8.57;4.53;;;28.10;99.90;;;;;;4437986;32;20139;-79
2021/08/16 09:44:50;;;;;;;8.75;4.70;;;28.00;99.90;;;;;;4439794;32;20191;-75
2021/08/16 09:47:17;;;;;;;6.37;4.45;;;27.80;99.90;;;;;;4439683;32;20181;-77
2021/08/16 09:49:56;;;;;;;5.97;4.47;;;27.70;99.90;;;;;;4438680;32;20162;-75
2021/08/16 09:52:32;;;;;;;8.48;4.82;;;27.60;99.90;;;;;;4427430;32;20505;-76
2021/08/16 09:54:59;;;;;;;8.55;4.55;;;27.60;99.90;;;;;;4422929;32;20157;-77
2021/08/16 09:57:33;;;;;;;6.20;4.65;;;27.80;99.90;;;;;;4424244;32;20173;-76
2021/08/16 10:00:00;;;;;;;5.40;4.50;;;28.30;99.90;;;;;;4422435;32;20173;-78
2021/08/16 10:02:28;;;;;;;6.40;4.40;;;28.90;99.90;;;;;;4423845;32;20530;-76
2021/08/16 10:04:57;;;;;;;5.68;4.20;;;29.80;99.90;;;;;;4426458;32;20194;-79
2021/08/16 10:07:34;;;;;;;7.00;4.47;;;30.60;99.90;;;;;;4425591;32;20182;-80
2021/08/16 10:10:03;;;;;;;5.68;4.30;;;30.70;99.10;;;;;;4425263;32;20188;-79
2021/08/16 10:12:32;;;;;;;5.70;4.20;;;30.90;96.60;;;;;;4426576;32;20143;-79
2021/08/16 10:15:02;;;;;;;6.40;4.50;;;31.40;95.90;;;;;;4425178;32;20209;-80
2021/08/16 10:17:36;;;;;;;4.95;4.25;;;31.40;94.50;;;;;;4431769;32;20386;-75
2021/08/16 10:20:06;;;;;;;9.40;4.22;;;31.80;94.40;;;;;;4442080;32;20141;-77
2021/08/16 10:22:37;;;;;;;6.32;4.57;;;31.80;91.70;;;;;;4441087;32;20214;-80
2021/08/16 10:25:15;;;;;;;5.10;4.12;;;32.00;93.10;;;;;;4441706;32;20180;-77
2021/08/16 10:27:43;;;;;;;4.78;3.83;;;32.70;91.30;;;;;;4441073;32;20225;-77
2021/08/16 10:30:15;;;;;;;5.55;4.28;;;32.90;90.60;;;;;;4440607;32;20147;-76
2021/08/16 10:32:43;;;;;;;6.32;4.28;;;33.30;87.80;;;;;;4439891;32;20150;-77
2021/08/16 10:35:18;;;;;;;7.62;4.30;;;33.30;86.10;;;;;;4441838;32;20386;-78
2021/08/16 10:37:45;;;;;;;7.53;4.00;;;33.50;86.30;;;;;;4439720;32;20162;-76
2021/08/16 10:40:22;;;;;;;6.18;4.10;;;33.90;85.00;;;;;;4441743;32;20189;-75
2021/08/16 10:42:53;;;;;;;5.97;4.10;;;34.30;80.70;;;;;;4439094;32;20185;-78
2021/08/16 10:45:25;;;;;;;5.93;4.20;;;33.70;80.80;;;;;;4425705;32;20155;-79
2021/08/16 10:48:06;;;;;;;7.80;4.18;;;33.60;80.00;;;;;;4425603;32;20158;-83
2021/08/16 10:50:35;;;;;;;7.60;4.07;;;33.80;79.10;;;;;;4433731;32;20150;-78
2021/08/16 10:53:08;;;;;;;5.32;4.00;;;34.10;78.50;;;;;;4439889;32;20181;-79
2021/08/16 10:55:38;;;;;;;5.68;4.00;;;34.50;78.10;;;;;;4439994;32;20234;-79
2021/08/16 10:58:11;;;;;;;5.10;3.85;;;35.00;73.50;;;;;;4441679;32;20154;-78
2021/08/16 11:00:40;;;;;;;5.75;3.97;;;33.90;75.10;;;;;;4441807;32;20209;-78
2021/08/16 11:03:07;;;;;;;7.37;4.05;;;33.20;77.00;;;;;;4441003;32;20439;-78
2021/08/16 11:05:37;;;;;;;6.47;4.15;;;32.70;78.40;;;;;;4441640;32;20330;-80
2021/08/16 11:08:07;;;;;;;4.97;4.12;;;32.50;80.40;;;;;;4439137;32;20162;-78
2021/08/16 11:10:39;;;;;;;4.97;4.22;;;32.80;81.10;;;;;;4441510;32;20142;-77
2021/08/16 11:13:14;;;;;;;7.25;4.07;;;32.40;82.60;;;;;;4432012;32;20365;-77
2021/08/16 11:15:43;;;;;;;7.03;4.95;;;32.60;83.00;;;;;;4430852;32;20139;-78
2021/08/16 11:18:20;;;;;;;5.47;4.22;;;33.10;81.90;;;;;;4436005;32;20469;-77
2021/08/16 11:20:59;;;;;;;6.87;4.45;;;33.50;82.30;;;;;;4439059;32;20185;-80
2021/08/16 11:23:26;;;;;;;5.57;4.37;;;33.80;79.30;;;;;;4440530;32;20497;-73
2021/08/16 11:25:58;;;;;;;5.75;3.90;;;34.00;78.20;;;;;;4440407;32;20146;-76
2021/08/16 11:28:31;;;;;;;6.18;4.37;;;34.40;78.70;;;;;;4438903;32;20459;-77
2021/08/16 11:31:06;;;;;;;7.80;4.28;;;34.40;76.00;;;;;;4440561;32;20266;-77
2021/08/16 11:33:35;;;;;;;6.12;4.40;;;34.50;77.20;;;;;;4440454;32;20219;-77
2021/08/16 11:36:07;;;;;;;7.62;4.55;;;34.80;78.10;;;;;;4441061;32;20462;-77
2021/08/16 11:38:36;;;;;;;7.75;4.30;;;35.10;75.80;;;;;;4438752;32;20210;-79
2021/08/16 11:41:13;;;;;;;8.27;4.70;;;34.70;74.30;;;;;;4439767;32;20131;-78
2021/08/16 11:44:16;;;;;;;7.10;4.57;;;33.90;76.10;;;;;;4440823;32;20166;-78
2021/08/16 11:46:44;;;;;;;6.10;4.10;;;33.20;78.70;;;;;;4437107;32;20155;-77
2021/08/16 11:49:12;;;;;;;7.68;4.53;;;33.50;80.40;;;;;;4440668;32;20150;-78
2021/08/16 11:51:44;;;;;;;9.82;4.70;;;33.80;78.40;;;;;;4439782;32;20515;-77
2021/08/16 11:54:13;;;;;;;7.18;4.45;;;34.40;77.30;;;;;;4435381;32;20142;-76
2021/08/16 11:56:58;;;;;;;7.32;4.65;;;34.60;76.40;;;;;;4433829;32;20147;-76
2021/08/16 11:59:25;;;;;;;5.07;4.10;;;35.20;74.80;;;;;;4434804;32;20231;-76
2021/08/16 12:01:59;;;;;;;6.45;4.68;;;35.40;74.20;;;;;;4432668;32;20169;-75
2021/08/16 12:04:26;;;;;;;7.30;4.40;;;35.60;74.30;;;;;;4437505;32;20403;-77
2021/08/16 12:06:54;;;;;;;5.05;4.10;;;35.80;73.50;;;;;;4437905;32;20196;-76
2021/08/16 12:09:36;;;;;;;5.80;4.22;;;36.30;73.40;;;;;;4439460;32;20190;-75
2021/08/16 12:12:06;;;;;;;7.85;4.75;;;37.10;72.70;;;;;;4432296;32;20195;-75
2021/08/16 12:14:35;;;;;;;5.25;4.03;;;37.00;67.10;;;;;;4424032;32;20173;-75
2021/08/16 12:17:03;;;;;;;5.45;4.25;;;36.30;68.10;;;;;;4425187;32;20169;-75
2021/08/16 12:19:31;;;;;;;6.45;4.60;;;35.70;69.70;;;;;;4424024;32;20127;-76
2021/08/16 12:22:03;;;;;;;8.40;4.90;;;35.80;70.10;;;;;;4423807;32;20178;-76
2021/08/16 12:24:30;;;;;;;5.45;4.80;;;36.30;68.50;;;;;;4423281;32;20513;-75
2021/08/16 12:26:59;;;;;;;5.93;4.90;;;36.40;68.50;;;;;;4425241;32;20320;-75
2021/08/16 12:29:28;;;;;;;6.43;4.43;;;36.50;66.60;;;;;;4423280;32;20170;-76
2021/08/16 12:31:55;;;;;;;6.93;4.65;;;36.70;67.70;;;;;;4432038;32;20190;-76
2021/08/16 12:34:32;;;;;;;6.62;4.57;;;37.20;67.60;;;;;;4440638;32;20162;-76
2021/08/16 12:36:59;;;;;;;6.50;4.75;;;37.20;65.20;;;;;;4438850;32;20131;-77
2021/08/16 12:39:32;;;;;;;7.70;4.72;;;37.20;66.10;;;;;;4439074;32;20134;-75
2021/08/16 12:42:07;;;;;;;5.30;4.45;;;36.50;66.20;;;;;;4439977;32;20157;-76
2021/08/16 12:44:50;;;;;;;7.45;4.90;;;36.60;67.00;;;;;;4439343;32;20494;-76